sensor_id;sensor_type;location;lat;lon;timestamp;pressure;altitude;pressure_sealevel;temperature;humidity
60240;BME280;46102;39.012;-7.064;2023-05-20T00:01:26;98233.38;;;18.88;28.73
60240;BME280;46102;39.012;-7.064;2023-05-20T00:03:27;98231.31;;;18.81;28.83
60240;BME280;46102;39.012;-7.064;2023-05-20T00:05:29;98229.63;;;18.77;28.85
60240;BME280;46102;39.012;-7.064;2023-05-20T00:07:30;98224.97;;;18.81;28.88
60240;BME280;46102;39.012;-7.064;2023-05-20T00:09:31;98224.53;;;18.79;28.91
60240;BME280;46102;39.012;-7.064;2023-05-20T00:11:32;98225.22;;;18.72;28.86
60240;BME280;46102;39.012;-7.064;2023-05-20T00:13:32;98224.03;;;18.73;28.99
60240;BME280;46102;39.012;-7.064;2023-05-20T00:15:35;98223.94;;;18.66;29.11
60240;BME280;46102;39.012;-7.064;2023-05-20T00:17:36;98218.88;;;18.71;28.98
60240;BME280;46102;39.012;-7.064;2023-05-20T00:19:37;98217.69;;;18.72;28.98
60240;BME280;46102;39.012;-7.064;2023-05-20T00:21:37;98216.47;;;18.70;29.17
60240;BME280;46102;39.012;-7.064;2023-05-20T00:23:38;98215.19;;;18.64;29.24
60240;BME280;46102;39.012;-7.064;2023-05-20T00:25:39;98214.34;;;18.60;29.25
60240;BME280;46102;39.012;-7.064;2023-05-20T00:27:40;98216.75;;;18.61;29.40
60240;BME280;46102;39.012;-7.064;2023-05-20T00:29:41;98207.56;;;18.54;29.41
60240;BME280;46102;39.012;-7.064;2023-05-20T00:31:41;98208.00;;;18.59;29.51
60240;BME280;46102;39.012;-7.064;2023-05-20T00:33:42;98202.41;;;18.56;29.43
60240;BME280;46102;39.012;-7.064;2023-05-20T00:35:43;98189.25;;;18.49;29.51
60240;BME280;46102;39.012;-7.064;2023-05-20T00:37:44;98194.38;;;18.47;29.74
60240;BME280;46102;39.012;-7.064;2023-05-20T00:39:45;98197.38;;;18.35;29.82
60240;BME280;46102;39.012;-7.064;2023-05-20T00:41:45;98187.47;;;18.34;29.82
60240;BME280;46102;39.012;-7.064;2023-05-20T00:43:46;98192.13;;;18.26;30.03
60240;BME280;46102;39.012;-7.064;2023-05-20T00:45:47;98189.44;;;18.33;30.04
60240;BME280;46102;39.012;-7.064;2023-05-20T00:47:48;98186.16;;;18.24;30.17
60240;BME280;46102;39.012;-7.064;2023-05-20T00:49:49;98179.78;;;18.23;30.20
60240;BME280;46102;39.012;-7.064;2023-05-20T00:51:52;98176.16;;;18.19;29.99
60240;BME280;46102;39.012;-7.064;2023-05-20T00:53:54;98183.28;;;18.17;30.19
60240;BME280;46102;39.012;-7.064;2023-05-20T00:55:55;98171.28;;;18.09;30.12
60240;BME280;46102;39.012;-7.064;2023-05-20T00:57:58;98175.28;;;18.12;30.20
60240;BME280;46102;39.012;-7.064;2023-05-20T01:00:00;98167.66;;;18.05;30.45
60240;BME280;46102;39.012;-7.064;2023-05-20T01:02:01;98174.00;;;18.05;30.41
60240;BME280;46102;39.012;-7.064;2023-05-20T01:04:03;98171.47;;;17.93;30.50
60240;BME280;46102;39.012;-7.064;2023-05-20T01:06:03;98175.00;;;17.90;30.72
60240;BME280;46102;39.012;-7.064;2023-05-20T01:08:04;98166.72;;;17.94;30.69
60240;BME280;46102;39.012;-7.064;2023-05-20T01:10:05;98176.59;;;17.91;30.70
60240;BME280;46102;39.012;-7.064;2023-05-20T01:12:21;98170.94;;;17.84;30.74
60240;BME280;46102;39.012;-7.064;2023-05-20T01:14:24;98167.50;;;17.94;30.88
60240;BME280;46102;39.012;-7.064;2023-05-20T01:16:27;98163.59;;;17.99;30.71
60240;BME280;46102;39.012;-7.064;2023-05-20T01:18:29;98163.91;;;17.90;30.78
60240;BME280;46102;39.012;-7.064;2023-05-20T01:20:32;98158.31;;;17.86;31.02
60240;BME280;46102;39.012;-7.064;2023-05-20T01:22:38;98153.91;;;17.85;30.99
60240;BME280;46102;39.012;-7.064;2023-05-20T01:24:46;98158.53;;;17.78;31.19
60240;BME280;46102;39.012;-7.064;2023-05-20T01:26:52;98159.59;;;17.69;31.30
60240;BME280;46102;39.012;-7.064;2023-05-20T01:28:53;98153.94;;;17.62;31.64
60240;BME280;46102;39.012;-7.064;2023-05-20T01:30:59;98159.94;;;17.64;31.59
60240;BME280;46102;39.012;-7.064;2023-05-20T01:33:04;98159.56;;;17.66;31.55
60240;BME280;46102;39.012;-7.064;2023-05-20T01:35:07;98150.75;;;17.60;31.70
60240;BME280;46102;39.012;-7.064;2023-05-20T01:37:09;98159.28;;;17.48;31.79
60240;BME280;46102;39.012;-7.064;2023-05-20T01:39:11;98155.75;;;17.51;31.95
60240;BME280;46102;39.012;-7.064;2023-05-20T01:41:12;98147.41;;;17.47;31.79
60240;BME280;46102;39.012;-7.064;2023-05-20T01:43:15;98142.22;;;17.46;32.06
60240;BME280;46102;39.012;-7.064;2023-05-20T01:45:16;98144.25;;;17.49;32.04
60240;BME280;46102;39.012;-7.064;2023-05-20T01:47:17;98141.88;;;17.47;31.99
60240;BME280;46102;39.012;-7.064;2023-05-20T01:49:18;98145.00;;;17.46;31.98
60240;BME280;46102;39.012;-7.064;2023-05-20T01:51:18;98141.38;;;17.42;31.90
60240;BME280;46102;39.012;-7.064;2023-05-20T01:53:19;98137.00;;;17.41;32.21
60240;BME280;46102;39.012;-7.064;2023-05-20T01:55:20;98137.53;;;17.50;31.99
60240;BME280;46102;39.012;-7.064;2023-05-20T01:57:22;98139.78;;;17.41;31.94
60240;BME280;46102;39.012;-7.064;2023-05-20T01:59:25;98135.81;;;17.42;32.07
60240;BME280;46102;39.012;-7.064;2023-05-20T02:01:26;98141.38;;;17.42;31.93
60240;BME280;46102;39.012;-7.064;2023-05-20T02:03:26;98147.16;;;17.33;32.18
60240;BME280;46102;39.012;-7.064;2023-05-20T02:05:28;98139.25;;;17.32;32.18
60240;BME280;46102;39.012;-7.064;2023-05-20T02:07:30;98136.94;;;17.37;32.29
60240;BME280;46102;39.012;-7.064;2023-05-20T02:09:31;98138.41;;;17.31;32.20
60240;BME280;46102;39.012;-7.064;2023-05-20T02:11:31;98135.91;;;17.22;32.37
60240;BME280;46102;39.012;-7.064;2023-05-20T02:13:33;98130.31;;;17.19;32.45
60240;BME280;46102;39.012;-7.064;2023-05-20T02:15:33;98139.75;;;17.14;32.61
60240;BME280;46102;39.012;-7.064;2023-05-20T02:17:34;98133.09;;;17.19;32.81
60240;BME280;46102;39.012;-7.064;2023-05-20T02:19:35;98137.34;;;17.13;32.85
60240;BME280;46102;39.012;-7.064;2023-05-20T02:21:38;98130.09;;;17.04;33.14
60240;BME280;46102;39.012;-7.064;2023-05-20T02:23:39;98129.94;;;16.97;33.20
60240;BME280;46102;39.012;-7.064;2023-05-20T02:25:42;98127.06;;;16.90;33.42
60240;BME280;46102;39.012;-7.064;2023-05-20T02:27:44;98136.91;;;16.88;33.46
60240;BME280;46102;39.012;-7.064;2023-05-20T02:29:45;98135.69;;;16.85;33.62
60240;BME280;46102;39.012;-7.064;2023-05-20T02:31:45;98134.91;;;16.84;33.41
60240;BME280;46102;39.012;-7.064;2023-05-20T02:33:46;98139.09;;;16.78;33.76
60240;BME280;46102;39.012;-7.064;2023-05-20T02:35:47;98138.22;;;16.74;33.87
60240;BME280;46102;39.012;-7.064;2023-05-20T02:37:48;98138.59;;;16.73;33.89
60240;BME280;46102;39.012;-7.064;2023-05-20T02:39:49;98131.03;;;16.70;33.83
60240;BME280;46102;39.012;-7.064;2023-05-20T02:41:50;98130.94;;;16.66;33.84
60240;BME280;46102;39.012;-7.064;2023-05-20T02:43:51;98125.50;;;16.70;33.79
60240;BME280;46102;39.012;-7.064;2023-05-20T02:45:52;98127.78;;;16.64;34.01
60240;BME280;46102;39.012;-7.064;2023-05-20T02:47:52;98126.59;;;16.65;33.96
60240;BME280;46102;39.012;-7.064;2023-05-20T02:49:53;98130.47;;;16.60;34.12
60240;BME280;46102;39.012;-7.064;2023-05-20T02:51:55;98132.13;;;16.65;34.12
60240;BME280;46102;39.012;-7.064;2023-05-20T02:53:56;98125.72;;;16.61;34.26
60240;BME280;46102;39.012;-7.064;2023-05-20T02:55:57;98124.63;;;16.65;34.23
60240;BME280;46102;39.012;-7.064;2023-05-20T02:57:59;98121.13;;;16.69;34.17
60240;BME280;46102;39.012;-7.064;2023-05-20T03:00:00;98122.25;;;16.64;34.25
60240;BME280;46102;39.012;-7.064;2023-05-20T03:02:01;98122.25;;;16.64;34.41
60240;BME280;46102;39.012;-7.064;2023-05-20T03:04:02;98118.47;;;16.53;34.33
60240;BME280;46102;39.012;-7.064;2023-05-20T03:06:04;98116.84;;;16.52;34.39
60240;BME280;46102;39.012;-7.064;2023-05-20T03:08:06;98120.81;;;16.51;34.40
60240;BME280;46102;39.012;-7.064;2023-05-20T03:10:09;98119.94;;;16.47;34.40
60240;BME280;46102;39.012;-7.064;2023-05-20T03:12:12;98119.13;;;16.46;34.54
60240;BME280;46102;39.012;-7.064;2023-05-20T03:14:13;98116.78;;;16.48;34.55
60240;BME280;46102;39.012;-7.064;2023-05-20T03:16:14;98108.84;;;16.47;34.44
60240;BME280;46102;39.012;-7.064;2023-05-20T03:18:18;98108.47;;;16.48;34.39
60240;BME280;46102;39.012;-7.064;2023-05-20T03:20:19;98110.31;;;16.40;34.67
60240;BME280;46102;39.012;-7.064;2023-05-20T03:22:20;98109.88;;;16.38;34.61
60240;BME280;46102;39.012;-7.064;2023-05-20T03:24:20;98102.75;;;16.37;34.67
60240;BME280;46102;39.012;-7.064;2023-05-20T03:26:22;98105.00;;;16.32;34.86
60240;BME280;46102;39.012;-7.064;2023-05-20T03:28:25;98111.50;;;16.20;35.10
60240;BME280;46102;39.012;-7.064;2023-05-20T03:30:26;98111.50;;;16.20;35.03
60240;BME280;46102;39.012;-7.064;2023-05-20T03:32:29;98107.84;;;16.16;35.32
60240;BME280;46102;39.012;-7.064;2023-05-20T03:34:30;98105.03;;;16.12;35.18
60240;BME280;46102;39.012;-7.064;2023-05-20T03:36:31;98102.19;;;16.09;35.30
60240;BME280;46102;39.012;-7.064;2023-05-20T03:38:32;98111.38;;;16.13;35.36
60240;BME280;46102;39.012;-7.064;2023-05-20T03:40:33;98106.84;;;16.05;35.26
60240;BME280;46102;39.012;-7.064;2023-05-20T03:42:34;98107.38;;;16.10;35.31
60240;BME280;46102;39.012;-7.064;2023-05-20T03:44:35;98100.88;;;16.02;35.54
60240;BME280;46102;39.012;-7.064;2023-05-20T03:46:36;98106.56;;;15.90;35.60
60240;BME280;46102;39.012;-7.064;2023-05-20T03:48:37;98101.16;;;15.97;35.64
60240;BME280;46102;39.012;-7.064;2023-05-20T03:50:38;98099.16;;;15.94;35.41
60240;BME280;46102;39.012;-7.064;2023-05-20T03:52:39;98096.44;;;15.98;35.46
60240;BME280;46102;39.012;-7.064;2023-05-20T03:54:40;98095.50;;;15.90;35.75
60240;BME280;46102;39.012;-7.064;2023-05-20T03:56:41;98096.28;;;15.91;35.50
60240;BME280;46102;39.012;-7.064;2023-05-20T03:58:42;98100.16;;;15.86;35.54
60240;BME280;46102;39.012;-7.064;2023-05-20T04:00:43;98092.78;;;15.94;35.30
60240;BME280;46102;39.012;-7.064;2023-05-20T04:02:44;98096.84;;;15.80;35.75
60240;BME280;46102;39.012;-7.064;2023-05-20T04:04:49;98087.19;;;15.71;35.90
60240;BME280;46102;39.012;-7.064;2023-05-20T04:06:53;98082.25;;;15.64;36.02
60240;BME280;46102;39.012;-7.064;2023-05-20T04:08:54;98090.25;;;15.69;35.97
60240;BME280;46102;39.012;-7.064;2023-05-20T04:10:56;98088.31;;;15.70;35.95
60240;BME280;46102;39.012;-7.064;2023-05-20T04:12:57;98083.16;;;15.68;35.89
60240;BME280;46102;39.012;-7.064;2023-05-20T04:14:58;98085.66;;;15.73;35.84
60240;BME280;46102;39.012;-7.064;2023-05-20T04:17:02;98086.56;;;15.61;35.96
60240;BME280;46102;39.012;-7.064;2023-05-20T04:19:04;98080.69;;;15.63;35.99
60240;BME280;46102;39.012;-7.064;2023-05-20T04:21:05;98082.03;;;15.53;36.19
60240;BME280;46102;39.012;-7.064;2023-05-20T04:23:06;98082.84;;;15.54;36.23
60240;BME280;46102;39.012;-7.064;2023-05-20T04:25:07;98082.31;;;15.48;36.22
60240;BME280;46102;39.012;-7.064;2023-05-20T04:27:09;98076.78;;;15.48;36.12
60240;BME280;46102;39.012;-7.064;2023-05-20T04:29:10;98079.53;;;15.48;36.21
60240;BME280;46102;39.012;-7.064;2023-05-20T04:31:11;98082.25;;;15.45;36.13
60240;BME280;46102;39.012;-7.064;2023-05-20T04:33:12;98078.41;;;15.49;36.33
60240;BME280;46102;39.012;-7.064;2023-05-20T04:35:14;98083.63;;;15.54;36.06
60240;BME280;46102;39.012;-7.064;2023-05-20T04:37:19;98073.66;;;15.50;36.27
60240;BME280;46102;39.012;-7.064;2023-05-20T04:39:20;98081.97;;;15.50;36.32
60240;BME280;46102;39.012;-7.064;2023-05-20T04:41:25;98079.84;;;15.43;36.41
60240;BME280;46102;39.012;-7.064;2023-05-20T04:43:27;98076.19;;;15.39;36.38
60240;BME280;46102;39.012;-7.064;2023-05-20T04:45:30;98079.84;;;15.43;36.22
60240;BME280;46102;39.012;-7.064;2023-05-20T04:47:33;98080.34;;;15.49;36.13
60240;BME280;46102;39.012;-7.064;2023-05-20T04:49:38;98077.53;;;15.45;36.28
60240;BME280;46102;39.012;-7.064;2023-05-20T04:51:43;98088.75;;;15.36;36.46
60240;BME280;46102;39.012;-7.064;2023-05-20T04:53:45;98080.19;;;15.41;36.13
60240;BME280;46102;39.012;-7.064;2023-05-20T04:55:47;98080.03;;;15.34;36.32
60240;BME280;46102;39.012;-7.064;2023-05-20T04:57:49;98083.69;;;15.38;36.31
60240;BME280;46102;39.012;-7.064;2023-05-20T04:59:50;98081.38;;;15.40;35.77
60240;BME280;46102;39.012;-7.064;2023-05-20T05:01:51;98086.81;;;15.37;36.19
60240;BME280;46102;39.012;-7.064;2023-05-20T05:03:52;98075.75;;;15.37;36.10
60240;BME280;46102;39.012;-7.064;2023-05-20T05:05:56;98078.78;;;15.32;36.04
60240;BME280;46102;39.012;-7.064;2023-05-20T05:07:57;98077.72;;;15.36;36.12
60240;BME280;46102;39.012;-7.064;2023-05-20T05:09:58;98078.00;;;15.31;36.07
60240;BME280;46102;39.012;-7.064;2023-05-20T05:11:58;98078.78;;;15.32;36.11
60240;BME280;46102;39.012;-7.064;2023-05-20T05:13:59;98078.78;;;15.32;35.94
60240;BME280;46102;39.012;-7.064;2023-05-20T05:16:01;98083.34;;;15.24;36.11
60240;BME280;46102;39.012;-7.064;2023-05-20T05:18:04;98083.09;;;15.29;35.91
60240;BME280;46102;39.012;-7.064;2023-05-20T05:20:07;98085.13;;;15.32;35.88
60240;BME280;46102;39.012;-7.064;2023-05-20T05:22:09;98087.38;;;15.27;36.00
60240;BME280;46102;39.012;-7.064;2023-05-20T05:24:10;98090.38;;;15.22;36.05
60240;BME280;46102;39.012;-7.064;2023-05-20T05:26:11;98083.00;;;15.26;35.91
60240;BME280;46102;39.012;-7.064;2023-05-20T05:28:12;98083.25;;;15.36;35.87
60240;BME280;46102;39.012;-7.064;2023-05-20T05:30:13;98079.59;;;15.32;35.84
60240;BME280;46102;39.012;-7.064;2023-05-20T05:32:13;98082.25;;;15.29;35.79
60240;BME280;46102;39.012;-7.064;2023-05-20T05:34:14;98091.28;;;15.26;35.86
60240;BME280;46102;39.012;-7.064;2023-05-20T05:36:15;98079.09;;;15.27;35.88
60240;BME280;46102;39.012;-7.064;2023-05-20T05:38:16;98085.41;;;15.27;35.73
60240;BME280;46102;39.012;-7.064;2023-05-20T05:40:17;98095.66;;;15.27;35.82
60240;BME280;46102;39.012;-7.064;2023-05-20T05:42:18;98091.63;;;15.24;35.74
60240;BME280;46102;39.012;-7.064;2023-05-20T05:44:20;98087.78;;;15.29;35.57
60240;BME280;46102;39.012;-7.064;2023-05-20T05:46:21;98094.38;;;15.24;35.69
60240;BME280;46102;39.012;-7.064;2023-05-20T05:48:22;98083.16;;;15.33;35.69
60240;BME280;46102;39.012;-7.064;2023-05-20T05:50:23;98081.22;;;15.33;35.72
60240;BME280;46102;39.012;-7.064;2023-05-20T05:52:25;98095.38;;;15.32;35.57
60240;BME280;46102;39.012;-7.064;2023-05-20T05:54:26;98094.19;;;15.33;35.55
60240;BME280;46102;39.012;-7.064;2023-05-20T05:56:27;98104.47;;;15.32;35.55
60240;BME280;46102;39.012;-7.064;2023-05-20T05:58:28;98095.09;;;15.37;35.55
60240;BME280;46102;39.012;-7.064;2023-05-20T06:00:29;98096.06;;;15.45;35.27
60240;BME280;46102;39.012;-7.064;2023-05-20T06:02:30;98097.13;;;15.40;35.30
60240;BME280;46102;39.012;-7.064;2023-05-20T06:04:35;98098.09;;;15.48;35.11
60240;BME280;46102;39.012;-7.064;2023-05-20T06:06:36;98104.88;;;15.50;35.05
60240;BME280;46102;39.012;-7.064;2023-05-20T06:08:37;98112.53;;;15.57;34.82
60240;BME280;46102;39.012;-7.064;2023-05-20T06:10:38;98102.25;;;15.57;34.87
60240;BME280;46102;39.012;-7.064;2023-05-20T06:12:39;98103.16;;;15.61;34.84
60240;BME280;46102;39.012;-7.064;2023-05-20T06:14:40;98104.47;;;15.68;34.75
60240;BME280;46102;39.012;-7.064;2023-05-20T06:16:41;98103.22;;;15.65;34.76
60240;BME280;46102;39.012;-7.064;2023-05-20T06:18:42;98107.22;;;15.68;34.60
60240;BME280;46102;39.012;-7.064;2023-05-20T06:20:43;98099.84;;;15.72;34.62
60240;BME280;46102;39.012;-7.064;2023-05-20T06:22:44;98102.84;;;15.67;34.58
60240;BME280;46102;39.012;-7.064;2023-05-20T06:24:46;98110.78;;;15.68;34.60
60240;BME280;46102;39.012;-7.064;2023-05-20T06:26:47;98100.53;;;15.69;34.64
60240;BME280;46102;39.012;-7.064;2023-05-20T06:28:49;98100.44;;;15.81;34.38
60240;BME280;46102;39.012;-7.064;2023-05-20T06:30:50;98104.78;;;15.82;34.23
60240;BME280;46102;39.012;-7.064;2023-05-20T06:32:53;98106.13;;;15.88;34.22
60240;BME280;46102;39.012;-7.064;2023-05-20T06:34:55;98100.94;;;15.87;34.26
60240;BME280;46102;39.012;-7.064;2023-05-20T06:36:57;98106.91;;;15.89;34.24
60240;BME280;46102;39.012;-7.064;2023-05-20T06:38:58;98109.75;;;15.92;34.05
60240;BME280;46102;39.012;-7.064;2023-05-20T06:40:59;98100.06;;;16.02;33.77
60240;BME280;46102;39.012;-7.064;2023-05-20T06:43:00;98104.59;;;16.10;33.62
60240;BME280;46102;39.012;-7.064;2023-05-20T06:45:20;98092.00;;;16.13;33.59
60240;BME280;46102;39.012;-7.064;2023-05-20T06:47:28;98094.16;;;16.23;33.42
60240;BME280;46102;39.012;-7.064;2023-05-20T06:49:29;98097.22;;;16.37;33.32
60240;BME280;46102;39.012;-7.064;2023-05-20T06:51:30;98093.78;;;16.44;32.93
60240;BME280;46102;39.012;-7.064;2023-05-20T06:53:30;98103.31;;;16.47;32.80
60240;BME280;46102;39.012;-7.064;2023-05-20T06:55:31;98100.25;;;16.52;32.85
60240;BME280;46102;39.012;-7.064;2023-05-20T06:57:32;98094.94;;;16.66;32.86
60240;BME280;46102;39.012;-7.064;2023-05-20T06:59:34;98099.41;;;16.71;32.43
60240;BME280;46102;39.012;-7.064;2023-05-20T07:01:37;98094.00;;;16.78;32.27
60240;BME280;46102;39.012;-7.064;2023-05-20T07:03:38;98095.59;;;16.79;32.29
60240;BME280;46102;39.012;-7.064;2023-05-20T07:05:39;98088.09;;;16.79;32.22
60240;BME280;46102;39.012;-7.064;2023-05-20T07:07:42;98101.34;;;16.90;32.17
60240;BME280;46102;39.012;-7.064;2023-05-20T07:09:44;98089.63;;;17.00;32.00
60240;BME280;46102;39.012;-7.064;2023-05-20T07:11:45;98094.69;;;16.94;32.15
60240;BME280;46102;39.012;-7.064;2023-05-20T07:13:45;98094.69;;;16.94;32.03
60240;BME280;46102;39.012;-7.064;2023-05-20T07:15:46;98086.38;;;16.94;32.01
60240;BME280;46102;39.012;-7.064;2023-05-20T07:17:48;98095.97;;;17.00;31.78
60240;BME280;46102;39.012;-7.064;2023-05-20T07:19:49;98092.09;;;17.05;31.73
60240;BME280;46102;39.012;-7.064;2023-05-20T07:21:50;98085.91;;;17.15;31.62
60240;BME280;46102;39.012;-7.064;2023-05-20T07:24:10;98089.72;;;17.30;31.35
60240;BME280;46102;39.012;-7.064;2023-05-20T07:26:11;98089.44;;;17.39;31.07
60240;BME280;46102;39.012;-7.064;2023-05-20T07:28:15;98090.84;;;17.52;30.79
60240;BME280;46102;39.012;-7.064;2023-05-20T07:30:17;98089.03;;;17.67;30.77
60240;BME280;46102;39.012;-7.064;2023-05-20T07:32:26;98088.94;;;17.86;30.51
60240;BME280;46102;39.012;-7.064;2023-05-20T07:34:27;98071.28;;;18.02;30.23
60240;BME280;46102;39.012;-7.064;2023-05-20T07:36:28;98075.41;;;18.15;29.84
60240;BME280;46102;39.012;-7.064;2023-05-20T07:38:33;98076.34;;;18.30;29.85
60240;BME280;46102;39.012;-7.064;2023-05-20T07:40:37;98076.53;;;18.44;29.36
60240;BME280;46102;39.012;-7.064;2023-05-20T07:42:40;98077.81;;;18.54;29.47
60240;BME280;46102;39.012;-7.064;2023-05-20T07:44:41;98080.28;;;18.63;29.32
60240;BME280;46102;39.012;-7.064;2023-05-20T07:46:41;98086.34;;;18.76;28.93
60240;BME280;46102;39.012;-7.064;2023-05-20T07:48:44;98083.31;;;18.88;28.87
60240;BME280;46102;39.012;-7.064;2023-05-20T07:50:46;98090.19;;;19.01;29.08
60240;BME280;46102;39.012;-7.064;2023-05-20T07:52:47;98079.56;;;19.18;28.64
60240;BME280;46102;39.012;-7.064;2023-05-20T07:54:47;98070.50;;;19.24;28.08
60240;BME280;46102;39.012;-7.064;2023-05-20T07:56:49;98086.81;;;19.29;28.33
60240;BME280;46102;39.012;-7.064;2023-05-20T07:58:56;98074.19;;;19.43;28.13
60240;BME280;46102;39.012;-7.064;2023-05-20T08:00:59;98084.63;;;19.60;27.89
60240;BME280;46102;39.012;-7.064;2023-05-20T08:03:01;98081.56;;;19.72;27.64
60240;BME280;46102;39.012;-7.064;2023-05-20T08:05:09;98085.13;;;19.76;27.66
60240;BME280;46102;39.012;-7.064;2023-05-20T08:07:10;98084.00;;;19.85;27.52
60240;BME280;46102;39.012;-7.064;2023-05-20T08:09:19;98082.81;;;19.89;27.14
60240;BME280;46102;39.012;-7.064;2023-05-20T08:11:23;98078.06;;;19.93;27.09
60240;BME280;46102;39.012;-7.064;2023-05-20T08:13:25;98082.47;;;20.02;26.92
60240;BME280;46102;39.012;-7.064;2023-05-20T08:15:27;98076.94;;;20.12;26.77
60240;BME280;46102;39.012;-7.064;2023-05-20T08:17:28;98077.34;;;20.11;26.87
60240;BME280;46102;39.012;-7.064;2023-05-20T08:19:28;98071.78;;;20.11;26.82
60240;BME280;46102;39.012;-7.064;2023-05-20T08:21:29;98076.56;;;20.21;26.81
60240;BME280;46102;39.012;-7.064;2023-05-20T08:23:30;98068.25;;;20.25;26.82
60240;BME280;46102;39.012;-7.064;2023-05-20T08:25:31;98066.66;;;20.34;26.48
60240;BME280;46102;39.012;-7.064;2023-05-20T08:27:32;98068.69;;;20.41;26.57
60240;BME280;46102;39.012;-7.064;2023-05-20T08:29:32;98063.13;;;20.45;26.26
60240;BME280;46102;39.012;-7.064;2023-05-20T08:31:34;98054.81;;;20.66;26.08
60240;BME280;46102;39.012;-7.064;2023-05-20T08:33:35;98057.63;;;20.70;26.08
60240;BME280;46102;39.012;-7.064;2023-05-20T08:35:36;98058.41;;;20.74;26.01
60240;BME280;46102;39.012;-7.064;2023-05-20T08:37:39;98055.22;;;20.86;26.18
60240;BME280;46102;39.012;-7.064;2023-05-20T08:39:40;98055.63;;;20.99;25.93
60240;BME280;46102;39.012;-7.064;2023-05-20T08:41:41;98052.44;;;21.26;25.80
60240;BME280;46102;39.012;-7.064;2023-05-20T08:43:46;98051.59;;;21.50;25.19
60240;BME280;46102;39.012;-7.064;2023-05-20T08:45:48;98050.75;;;21.71;25.16
60240;BME280;46102;39.012;-7.064;2023-05-20T08:47:51;98048.34;;;21.80;24.86
60240;BME280;46102;39.012;-7.064;2023-05-20T08:49:52;98050.31;;;21.87;24.72
60240;BME280;46102;39.012;-7.064;2023-05-20T08:51:52;98039.50;;;22.00;24.39
60240;BME280;46102;39.012;-7.064;2023-05-20T08:53:53;98036.63;;;22.14;24.39
60240;BME280;46102;39.012;-7.064;2023-05-20T08:55:56;98039.38;;;22.25;24.08
60240;BME280;46102;39.012;-7.064;2023-05-20T08:57:59;98041.31;;;22.35;24.05
60240;BME280;46102;39.012;-7.064;2023-05-20T09:00:00;98033.16;;;22.62;23.72
60240;BME280;46102;39.012;-7.064;2023-05-20T09:02:01;98033.41;;;22.82;23.19
60240;BME280;46102;39.012;-7.064;2023-05-20T09:04:02;98033.28;;;22.97;22.98
60240;BME280;46102;39.012;-7.064;2023-05-20T09:06:06;98028.78;;;23.10;22.83
60240;BME280;46102;39.012;-7.064;2023-05-20T09:08:09;98027.06;;;23.23;22.98
60240;BME280;46102;39.012;-7.064;2023-05-20T09:10:10;98023.75;;;23.36;22.51
60240;BME280;46102;39.012;-7.064;2023-05-20T09:12:11;98027.19;;;23.51;22.73
60240;BME280;46102;39.012;-7.064;2023-05-20T09:14:12;98020.69;;;23.61;22.12
60240;BME280;46102;39.012;-7.064;2023-05-20T09:16:13;98024.94;;;23.76;21.98
60240;BME280;46102;39.012;-7.064;2023-05-20T09:18:14;98020.81;;;23.84;22.00
60240;BME280;46102;39.012;-7.064;2023-05-20T09:20:15;98018.66;;;23.99;22.02
60240;BME280;46102;39.012;-7.064;2023-05-20T09:22:26;98022.47;;;24.13;21.93
60240;BME280;46102;39.012;-7.064;2023-05-20T09:24:27;98018.41;;;24.17;21.31
60240;BME280;46102;39.012;-7.064;2023-05-20T09:26:28;98009.47;;;24.26;21.31
60240;BME280;46102;39.012;-7.064;2023-05-20T09:28:29;98015.75;;;24.34;21.10
60240;BME280;46102;39.012;-7.064;2023-05-20T09:30:31;98012.00;;;24.47;21.57
60240;BME280;46102;39.012;-7.064;2023-05-20T09:32:31;98007.38;;;24.61;20.87
60240;BME280;46102;39.012;-7.064;2023-05-20T09:34:32;98016.97;;;24.63;20.63
60240;BME280;46102;39.012;-7.064;2023-05-20T09:36:34;98025.69;;;24.69;20.96
60240;BME280;46102;39.012;-7.064;2023-05-20T09:38:38;98016.00;;;24.73;20.62
60240;BME280;46102;39.012;-7.064;2023-05-20T09:40:40;98019.66;;;24.70;20.84
60240;BME280;46102;39.012;-7.064;2023-05-20T09:42:49;98012.00;;;24.75;20.91
60240;BME280;46102;39.012;-7.064;2023-05-20T09:44:52;98012.72;;;24.79;20.87
60240;BME280;46102;39.012;-7.064;2023-05-20T09:46:55;98012.81;;;24.71;20.77
60240;BME280;46102;39.012;-7.064;2023-05-20T09:48:56;98004.28;;;24.55;21.06
60240;BME280;46102;39.012;-7.064;2023-05-20T09:50:57;98007.34;;;24.64;21.40
60240;BME280;46102;39.012;-7.064;2023-05-20T09:53:02;98004.63;;;24.84;21.17
60240;BME280;46102;39.012;-7.064;2023-05-20T09:55:06;98012.16;;;24.87;20.57
60240;BME280;46102;39.012;-7.064;2023-05-20T09:57:07;98007.94;;;24.99;20.89
60240;BME280;46102;39.012;-7.064;2023-05-20T09:59:09;98015.53;;;25.26;20.79
60240;BME280;46102;39.012;-7.064;2023-05-20T10:01:11;98017.59;;;25.45;20.02
60240;BME280;46102;39.012;-7.064;2023-05-20T10:03:11;98007.59;;;25.64;19.96
60240;BME280;46102;39.012;-7.064;2023-05-20T10:05:16;97997.88;;;25.69;19.67
60240;BME280;46102;39.012;-7.064;2023-05-20T10:12:03;98000.75;;;25.65;19.24
60240;BME280;46102;39.012;-7.064;2023-05-20T10:21:31;97996.50;;;26.70;18.60
60240;BME280;46102;39.012;-7.064;2023-05-20T10:23:32;97997.38;;;26.83;18.55
60240;BME280;46102;39.012;-7.064;2023-05-20T10:25:33;97991.72;;;26.99;18.76
60240;BME280;46102;39.012;-7.064;2023-05-20T10:27:46;97991.88;;;27.09;18.69
60240;BME280;46102;39.012;-7.064;2023-05-20T10:29:53;97987.41;;;27.28;18.12
60240;BME280;46102;39.012;-7.064;2023-05-20T10:31:54;97979.25;;;27.46;18.48
60240;BME280;46102;39.012;-7.064;2023-05-20T10:33:57;97984.44;;;27.77;17.86
60240;BME280;46102;39.012;-7.064;2023-05-20T10:35:59;97983.47;;;27.96;17.39
60240;BME280;46102;39.012;-7.064;2023-05-20T10:38:10;97986.19;;;28.00;17.35
60240;BME280;46102;39.012;-7.064;2023-05-20T10:40:17;97980.00;;;28.05;17.47
60240;BME280;46102;39.012;-7.064;2023-05-20T10:42:27;97983.44;;;27.83;17.25
60240;BME280;46102;39.012;-7.064;2023-05-20T10:44:39;97986.66;;;27.40;17.54
60240;BME280;46102;39.012;-7.064;2023-05-20T10:46:40;97984.25;;;27.09;17.59
60240;BME280;46102;39.012;-7.064;2023-05-20T10:48:41;97974.75;;;27.03;17.54
60240;BME280;46102;39.012;-7.064;2023-05-20T10:50:43;97979.34;;;26.81;17.56